Time;durP1;ratioP1;P1;durP2;ratioP2;P2;SDS_P1;SDS_P2;PMS_P1;PMS_P2;Temp;Humidity;BMP_temperature;BMP_pressure;BME280_temperature;BME280_humidity;BME280_pressure;Samples;Min_cycle;Max_cycle;Signal;HPM_P1;HPM_P2
2023/12/27 00:03:24;;;;;;;;;;;;;;;17.20;48.74;100211.34;10331610;28;1894;-83
2023/12/27 00:08:20;;;;;;;;;;;;;;;17.20;48.60;100220.09;10331963;28;1219;-85
2023/12/27 00:13:16;;;;;;;;;;;;;;;17.21;48.59;100219.19;10330583;28;1001;-85
2023/12/27 00:18:16;;;;;;;;;;;;;;;17.18;48.78;100226.31;10330701;28;764;-84
2023/12/27 00:23:12;;;;;;;;;;;;;;;17.16;48.68;100218.50;10330057;28;1950;-85
2023/12/27 00:28:07;;;;;;;;;;;;;;;17.18;48.74;100221.91;10331595;28;932;-84
2023/12/27 00:33:03;;;;;;;;;;;;;;;17.20;48.58;100220.09;10330468;28;881;-83
2023/12/27 00:37:59;;;;;;;;;;;;;;;17.19;48.54;100223.66;10330385;28;1091;-84
2023/12/27 00:42:55;;;;;;;;;;;;;;;17.17;48.61;100225.47;10329611;28;1906;-84
2023/12/27 00:47:51;;;;;;;;;;;;;;;17.16;48.76;100225.50;10329983;28;797;-84
2023/12/27 00:52:47;;;;;;;;;;;;;;;17.18;48.74;100214.00;10328761;28;996;-85
2023/12/27 00:57:43;;;;;;;;;;;;;;;17.17;48.83;100208.81;10328363;28;866;-85
2023/12/27 01:02:39;;;;;;;;;;;;;;;17.16;48.83;100202.69;10328237;28;1902;-86
2023/12/27 01:07:34;;;;;;;;;;;;;;;17.15;48.76;100200.94;10328649;28;927;-84
2023/12/27 01:12:30;;;;;;;;;;;;;;;17.15;48.85;100205.34;10328517;28;892;-84
2023/12/27 01:17:26;;;;;;;;;;;;;;;17.17;48.75;100201.75;10327826;28;791;-84
2023/12/27 01:22:22;;;;;;;;;;;;;;;17.17;48.67;100206.16;10327374;28;1965;-84
2023/12/27 01:27:18;;;;;;;;;;;;;;;17.14;48.77;100199.22;10327857;28;866;-84
2023/12/27 01:32:14;;;;;;;;;;;;;;;17.13;48.71;100191.38;10328203;28;841;-84
2023/12/27 01:37:10;;;;;;;;;;;;;;;17.17;48.76;100195.63;10327800;28;1188;-85
2023/12/27 01:42:06;;;;;;;;;;;;;;;17.15;48.73;100189.56;10326483;28;1910;-83
2023/12/27 01:47:02;;;;;;;;;;;;;;;17.13;48.74;100181.69;10327675;28;885;-86
2023/12/27 01:51:57;;;;;;;;;;;;;;;17.12;48.89;100185.25;10326769;28;893;-86
2023/12/27 01:56:53;;;;;;;;;;;;;;;17.14;48.59;100195.75;10326831;28;830;-85
2023/12/27 02:01:49;;;;;;;;;;;;;;;17.15;48.50;100197.44;10327066;28;878;-88
2023/12/27 02:06:45;;;;;;;;;;;;;;;17.14;48.66;100203.66;10325663;28;937;-85
2023/12/27 02:11:41;;;;;;;;;;;;;;;17.11;48.89;100201.97;10325869;28;1141;-83
2023/12/27 02:16:37;;;;;;;;;;;;;;;17.11;48.74;100196.72;10326603;28;794;-85
2023/12/27 02:21:33;;;;;;;;;;;;;;;17.13;48.63;100200.13;10326467;28;885;-83
2023/12/27 02:26:29;;;;;;;;;;;;;;;17.13;48.51;100197.50;10325664;28;1894;-85
2023/12/27 02:31:24;;;;;;;;;;;;;;;17.12;48.71;100194.94;10325636;28;922;-86
2023/12/27 02:36:21;;;;;;;;;;;;;;;17.08;48.74;100195.03;10324867;28;1673;-81
2023/12/27 02:41:17;;;;;;;;;;;;;;;17.09;48.76;100180.94;10325671;28;843;-81
2023/12/27 02:46:13;;;;;;;;;;;;;;;17.13;48.66;100179.06;10325565;28;1909;-84
2023/12/27 02:51:09;;;;;;;;;;;;;;;17.13;48.53;100175.56;10326130;28;836;-87
2023/12/27 02:56:04;;;;;;;;;;;;;;;17.11;48.74;100175.63;10325423;28;829;-83
2023/12/27 03:01:00;;;;;;;;;;;;;;;17.08;48.57;100163.44;10325323;28;904;-84
2023/12/27 03:05:56;;;;;;;;;;;;;;;17.09;48.58;100162.50;10324965;28;1890;-84
2023/12/27 03:10:52;;;;;;;;;;;;;;;17.12;48.57;100158.06;10325752;28;896;-84
2023/12/27 03:15:48;;;;;;;;;;;;;;;17.09;48.44;100144.06;10325229;28;791;-84
2023/12/27 03:20:44;;;;;;;;;;;;;;;17.08;48.73;100144.09;10331135;28;944;-84
2023/12/27 03:25:40;;;;;;;;;;;;;;;17.06;48.51;100144.19;10333659;28;1960;-83
2023/12/27 03:30:35;;;;;;;;;;;;;;;17.11;48.42;100140.50;10333429;28;914;-83
2023/12/27 03:35:31;;;;;;;;;;;;;;;17.09;48.62;100132.69;10331957;28;1147;-83
2023/12/27 03:40:27;;;;;;;;;;;;;;;17.08;48.61;100130.94;10333847;28;932;-82
2023/12/27 03:45:23;;;;;;;;;;;;;;;17.05;48.73;100136.31;10331597;28;1967;-83
2023/12/27 03:50:19;;;;;;;;;;;;;;;17.08;48.70;100133.56;10332702;28;781;-83
2023/12/27 03:55:15;;;;;;;;;;;;;;;17.09;48.42;100130.91;10332466;28;995;-83
2023/12/27 04:00:11;;;;;;;;;;;;;;;17.07;48.52;100108.16;10332601;28;806;-83
2023/12/27 04:05:07;;;;;;;;;;;;;;;17.05;48.79;100109.97;10332014;28;1910;-83
2023/12/27 04:10:03;;;;;;;;;;;;;;;17.07;48.50;100103.75;10331305;28;801;-83
2023/12/27 04:14:59;;;;;;;;;;;;;;;17.08;48.46;100094.06;10331753;28;844;-83
2023/12/27 04:19:54;;;;;;;;;;;;;;;17.08;48.48;100091.44;10330964;28;813;-83
2023/12/27 04:24:50;;;;;;;;;;;;;;;17.06;48.64;100104.66;10330745;28;1898;-84
2023/12/27 04:29:46;;;;;;;;;;;;;;;17.05;48.51;100104.72;10330147;28;881;-83
2023/12/27 04:34:42;;;;;;;;;;;;;;;17.06;48.41;100107.31;10331159;28;980;-83
2023/12/27 04:39:38;;;;;;;;;;;;;;;17.07;48.61;100109.00;10330162;28;1451;-83
2023/12/27 04:44:34;;;;;;;;;;;;;;;17.06;48.41;100116.97;10329422;28;1914;-83
2023/12/27 04:49:30;;;;;;;;;;;;;;;17.12;48.33;100111.50;10330531;28;802;-83
2023/12/27 04:54:25;;;;;;;;;;;;;;;17.17;48.27;100098.16;10330885;28;984;-83
2023/12/27 04:59:21;;;;;;;;;;;;;;;17.20;48.32;100096.28;10329491;28;877;-83
2023/12/27 05:04:17;;;;;;;;;;;;;;;17.23;48.08;100082.13;10329249;28;1957;-83
2023/12/27 05:09:16;;;;;;;;;;;;;;;17.23;48.22;100061.06;10329254;28;907;-82
2023/12/27 05:14:12;;;;;;;;;;;;;;;17.23;48.05;100058.44;10329440;28;910;-83
2023/12/27 05:19:08;;;;;;;;;;;;;;;17.26;48.06;100050.41;10328614;28;932;-83
2023/12/27 05:24:04;;;;;;;;;;;;;;;17.25;48.17;100057.47;10328418;28;1959;-84
2023/12/27 05:29:00;;;;;;;;;;;;;;;17.27;48.12;100055.63;10327693;28;1020;-83
2023/12/27 05:33:55;;;;;;;;;;;;;;;17.31;48.10;100057.22;10328099;28;780;-83
2023/12/27 05:38:51;;;;;;;;;;;;;;;17.28;48.22;100044.16;10328206;28;1301;-83
2023/12/27 05:43:47;;;;;;;;;;;;;;;17.31;48.20;100045.84;10328260;28;1914;-83
2023/12/27 05:48:44;;;;;;;;;;;;;;;17.34;48.14;100042.22;10327353;28;1125;-74
2023/12/27 05:53:41;;;;;;;;;;;;;;;17.33;48.13;100056.34;10327911;28;1024;-74
2023/12/27 05:58:37;;;;;;;;;;;;;;;17.35;47.95;100050.09;10327076;28;965;-74
2023/12/27 06:03:33;;;;;;;;;;;;;;;17.35;47.96;100049.25;10327428;28;1910;-74
2023/12/27 06:08:29;;;;;;;;;;;;;;;17.33;48.04;100040.53;10326641;28;985;-73
2023/12/27 06:13:24;;;;;;;;;;;;;;;17.34;47.97;100039.59;10326555;28;997;-72
2023/12/27 06:18:21;;;;;;;;;;;;;;;17.38;48.09;100043.84;10326426;28;771;-74
2023/12/27 06:23:17;;;;;;;;;;;;;;;17.35;48.08;100036.06;10326785;28;1959;-77
2023/12/27 06:28:13;;;;;;;;;;;;;;;17.38;48.02;100028.03;10326659;28;850;-72
2023/12/27 06:33:09;;;;;;;;;;;;;;;17.37;47.98;100003.47;10326194;28;818;-73
2023/12/27 06:38:04;;;;;;;;;;;;;;;17.35;47.97;100010.56;10326245;28;1326;-73
2023/12/27 06:43:00;;;;;;;;;;;;;;;17.35;48.20;100005.31;10326178;28;1910;-75
2023/12/27 06:47:56;;;;;;;;;;;;;;;17.37;48.22;99999.97;10326836;28;868;-76
2023/12/27 06:52:52;;;;;;;;;;;;;;;17.36;48.19;100004.38;10324861;28;850;-74
2023/12/27 06:57:48;;;;;;;;;;;;;;;17.37;47.98;99999.97;10326620;28;960;-74
2023/12/27 07:02:44;;;;;;;;;;;;;;;17.35;48.17;99986.00;10325244;28;1959;-74
2023/12/27 07:07:40;;;;;;;;;;;;;;;17.30;48.19;99984.38;10325150;28;944;-78
2023/12/27 07:12:36;;;;;;;;;;;;;;;17.25;48.27;99967.88;10325138;28;869;-73
2023/12/27 07:17:31;;;;;;;;;;;;;;;17.20;48.37;99967.19;10325050;28;799;-73
2023/12/27 07:22:27;;;;;;;;;;;;;;;17.16;48.46;99964.72;10325422;28;1890;-73
2023/12/27 07:27:23;;;;;;;;;;;;;;;17.10;48.79;99957.91;10326054;28;877;-73
2023/12/27 07:32:20;;;;;;;;;;;;;;;17.06;48.61;99941.38;10324139;28;734;-73
2023/12/27 07:37:16;;;;;;;;;;;;;;;17.01;48.73;99922.25;10324892;28;1106;-77
2023/12/27 07:42:12;;;;;;;;;;;;;;;17.02;48.72;99912.59;10323932;28;1905;-71
2023/12/27 07:47:08;;;;;;;;;;;;;;;17.23;48.33;99914.41;10324472;28;905;-71
2023/12/27 07:52:03;;;;;;;;;;;;;;;17.35;48.02;99906.97;10324237;28;793;-71
2023/12/27 07:56:59;;;;;;;;;;;;;;;17.42;48.05;99903.16;10324869;28;853;-71
2023/12/27 08:01:55;;;;;;;;;;;;;;;17.49;47.95;99905.47;10324284;28;850;-71
2023/12/27 08:06:52;;;;;;;;;;;;;;;17.51;48.04;99905.44;10330470;28;1947;-71
2023/12/27 08:11:48;;;;;;;;;;;;;;;17.55;48.14;99914.91;10331982;28;1015;-70
2023/12/27 08:16:44;;;;;;;;;;;;;;;17.59;48.21;99905.97;10331720;28;811;-71
2023/12/27 08:21:39;;;;;;;;;;;;;;;17.44;48.49;99911.84;10331494;28;774;-74
2023/12/27 08:26:35;;;;;;;;;;;;;;;17.38;48.58;99906.84;10331346;28;1890;-74
2023/12/27 08:31:31;;;;;;;;;;;;;;;17.33;48.51;99899.09;10330592;28;865;-75
2023/12/27 08:36:29;;;;;;;;;;;;;;;17.31;48.65;99907.06;10330162;28;1320;-74
2023/12/27 08:41:26;;;;;;;;;;;;;;;17.33;48.49;99893.84;10330197;28;802;-76
2023/12/27 08:46:23;;;;;;;;;;;;;;;17.31;48.53;99883.34;10330017;28;1975;-76
2023/12/27 08:51:18;;;;;;;;;;;;;;;17.30;48.55;99883.41;10330061;28;847;-75
2023/12/27 08:56:14;;;;;;;;;;;;;;;17.32;48.59;99886.88;10329722;28;798;-75
2023/12/27 09:01:10;;;;;;;;;;;;;;;17.31;48.42;99882.50;10328861;28;1085;-75
2023/12/27 09:06:06;;;;;;;;;;;;;;;17.48;48.55;99879.22;10329204;28;1894;-75
2023/12/27 09:11:02;;;;;;;;;;;;;;;17.37;48.47;99878.75;10329671;28;850;-75
2023/12/27 09:15:58;;;;;;;;;;;;;;;17.33;48.65;99877.19;10328266;28;915;-74
2023/12/27 09:20:54;;;;;;;;;;;;;;;17.30;48.54;99871.09;10329447;28;905;-75
2023/12/27 09:25:50;;;;;;;;;;;;;;;17.34;48.47;99886.78;10327831;28;1897;-75
2023/12/27 09:30:46;;;;;;;;;;;;;;;17.32;48.54;99900.03;10326654;28;1176;-74
2023/12/27 09:35:42;;;;;;;;;;;;;;;17.30;48.36;99888.69;10327662;28;1257;-74
2023/12/27 09:40:38;;;;;;;;;;;;;;;17.31;48.42;99882.50;10327704;28;961;-75
2023/12/27 09:45:34;;;;;;;;;;;;;;;17.31;48.44;99877.22;10327736;28;1975;-74
2023/12/27 09:50:30;;;;;;;;;;;;;;;17.28;48.45;99865.03;10327883;28;892;-74
2023/12/27 09:55:26;;;;;;;;;;;;;;;17.30;48.27;99836.84;10327672;28;867;-74
2023/12/27 10:00:22;;;;;;;;;;;;;;;17.31;48.41;99827.16;10326579;28;905;-74
2023/12/27 10:05:17;;;;;;;;;;;;;;;17.32;48.34;99834.16;10327281;28;1902;-74
2023/12/27 10:10:13;;;;;;;;;;;;;;;17.34;48.17;99837.56;10326236;28;867;-75
2023/12/27 10:15:09;;;;;;;;;;;;;;;17.32;48.38;99821.00;10326479;28;1146;-74
2023/12/27 10:20:07;;;;;;;;;;;;;;;17.30;48.21;99822.81;10325273;28;1043;-74
2023/12/27 10:25:03;;;;;;;;;;;;;;;17.34;48.16;99805.09;10326072;28;1955;-75
2023/12/27 10:29:59;;;;;;;;;;;;;;;17.31;48.27;99803.47;10325388;28;882;-76
2023/12/27 10:34:55;;;;;;;;;;;;;;;17.30;48.33;99783.31;10323440;28;1053;-76
2023/12/27 10:39:51;;;;;;;;;;;;;;;17.31;48.05;99785.88;10325008;28;1279;-72
2023/12/27 10:44:47;;;;;;;;;;;;;;;17.29;48.34;99789.47;10323450;28;1975;-79
2023/12/27 10:49:42;;;;;;;;;;;;;;;17.29;48.28;99761.38;10324761;28;876;-77
2023/12/27 10:54:38;;;;;;;;;;;;;;;17.29;48.18;99761.38;10323943;28;1066;-77
2023/12/27 10:59:34;;;;;;;;;;;;;;;17.28;48.41;99769.34;10324999;28;846;-78
2023/12/27 11:04:30;;;;;;;;;;;;;;;17.27;48.11;99752.69;10324167;28;1866;-76
2023/12/27 11:09:26;;;;;;;;;;;;;;;17.38;48.29;99748.75;10324435;28;925;-79
2023/12/27 11:14:24;;;;;;;;;;;;;;;17.31;48.31;99746.34;10324269;28;794;-74
2023/12/27 11:19:20;;;;;;;;;;;;;;;17.30;48.22;99746.44;10324561;28;934;-77
2023/12/27 11:24:16;;;;;;;;;;;;;;;17.29;48.43;99735.03;10324500;28;1961;-74
2023/12/27 11:29:12;;;;;;;;;;;;;;;17.27;48.48;99731.59;10324545;28;1125;-80
2023/12/27 11:34:08;;;;;;;;;;;;;;;17.28;48.26;99730.69;10324581;28;829;-82
2023/12/27 11:39:04;;;;;;;;;;;;;;;17.35;48.04;99731.28;10326578;28;1135;-73
2023/12/27 11:44:06;;;;;;;;;;;;;;;17.56;48.59;99708.44;10331765;28;1973;-72
2023/12/27 11:49:03;;;;;;;;;;;;;;;17.70;48.77;99706.06;10331553;28;908;-72
2023/12/27 11:53:59;;;;;;;;;;;;;;;17.76;48.84;99707.56;10331941;28;938;-73
2023/12/27 11:58:55;;;;;;;;;;;;;;;17.72;49.12;99695.47;10331206;28;938;-75
2023/12/27 12:03:51;;;;;;;;;;;;;;;17.79;49.19;99674.94;10331624;28;1890;-73
2023/12/27 12:08:48;;;;;;;;;;;;;;;17.56;49.52;99663.63;10330768;28;864;-77
2023/12/27 12:13:45;;;;;;;;;;;;;;;17.42;49.35;99666.00;10330686;28;846;-76
2023/12/27 12:18:41;;;;;;;;;;;;;;;17.40;49.43;99652.06;10330946;28;968;-77
2023/12/27 12:23:37;;;;;;;;;;;;;;;17.39;49.36;99634.53;10330628;28;1894;-73
2023/12/27 12:28:32;;;;;;;;;;;;;;;17.35;49.14;99638.22;10329457;28;945;-72
2023/12/27 12:33:28;;;;;;;;;;;;;;;17.31;49.34;99619.91;10330069;28;1112;-74
2023/12/27 12:38:24;;;;;;;;;;;;;;;17.34;49.04;99613.63;10329535;28;1380;-74
2023/12/27 12:43:20;;;;;;;;;;;;;;;17.29;49.00;99599.81;10329349;28;1971;-80
2023/12/27 12:48:17;;;;;;;;;;;;;;;17.29;48.90;99594.53;10329596;28;886;-81
2023/12/27 12:53:13;;;;;;;;;;;;;;;17.30;48.90;99578.69;10328512;28;869;-80
2023/12/27 12:58:08;;;;;;;;;;;;;;;17.25;48.99;99575.38;10329630;28;864;-81
2023/12/27 13:03:07;;;;;;;;;;;;;;;17.27;48.97;99562.16;10328870;28;1961;-79
2023/12/27 13:08:03;;;;;;;;;;;;;;;17.28;48.92;99551.53;10328690;28;1131;-82
2023/12/27 13:12:59;;;;;;;;;;;;;;;17.23;48.84;99545.63;10328590;28;845;-81
2023/12/27 13:17:55;;;;;;;;;;;;;;;17.27;48.89;99541.09;10329695;28;961;-74
2023/12/27 13:22:51;;;;;;;;;;;;;;;17.28;48.87;99543.63;10328020;28;1898;-79
2023/12/27 13:27:47;;;;;;;;;;;;;;;17.24;48.94;99536.81;10328944;28;1177;-81
2023/12/27 13:32:43;;;;;;;;;;;;;;;17.27;48.82;99527.94;10328155;28;822;-85
2023/12/27 13:37:39;;;;;;;;;;;;;;;17.26;48.63;99524.41;10327214;28;1211;-71
2023/12/27 13:42:35;;;;;;;;;;;;;;;17.26;48.81;99521.78;10327523;28;1965;-72
2023/12/27 13:47:31;;;;;;;;;;;;;;;17.21;48.74;99505.34;10326121;28;1179;-71
2023/12/27 13:52:27;;;;;;;;;;;;;;;17.26;48.63;99486.69;10326318;28;904;-72
2023/12/27 13:57:22;;;;;;;;;;;;;;;17.23;48.78;99477.13;10326702;28;834;-72
2023/12/27 14:02:18;;;;;;;;;;;;;;;17.25;48.63;99472.66;10325941;28;1947;-73
2023/12/27 14:07:14;;;;;;;;;;;;;;;17.26;48.71;99469.09;10327142;28;810;-72
2023/12/27 14:12:10;;;;;;;;;;;;;;;17.23;48.67;99474.50;10326493;28;988;-72
2023/12/27 14:17:06;;;;;;;;;;;;;;;17.20;48.65;99458.84;10322405;28;872;-78
2023/12/27 14:22:02;;;;;;;;;;;;;;;17.27;48.40;99455.00;10326111;28;915;-77
2023/12/27 14:26:58;;;;;;;;;;;;;;;17.25;48.66;99456.00;10326356;28;1966;-80
2023/12/27 14:31:53;;;;;;;;;;;;;;;17.24;48.62;99447.25;10326572;28;888;-83
2023/12/27 14:36:49;;;;;;;;;;;;;;;17.19;48.53;99443.97;10325159;28;1334;-74
2023/12/27 14:41:45;;;;;;;;;;;;;;;17.18;48.77;99447.53;10324284;28;924;-73
2023/12/27 14:46:41;;;;;;;;;;;;;;;17.13;48.71;99431.06;10324767;28;1897;-74
2023/12/27 14:51:37;;;;;;;;;;;;;;;17.09;48.81;99435.63;10325583;28;870;-74
2023/12/27 14:56:33;;;;;;;;;;;;;;;17.07;48.95;99426.09;10325454;28;885;-75
2023/12/27 15:01:29;;;;;;;;;;;;;;;17.06;48.79;99422.59;10325380;28;841;-74
2023/12/27 15:06:25;;;;;;;;;;;;;;;17.05;48.84;99402.44;10326117;28;1963;-75
2023/12/27 15:11:21;;;;;;;;;;;;;;;17.08;48.91;99398.81;10325591;28;885;-75
2023/12/27 15:16:17;;;;;;;;;;;;;;;17.08;48.62;99398.81;10331190;28;851;-75
2023/12/27 15:21:13;;;;;;;;;;;;;;;17.06;48.57;99396.28;10333158;28;750;-76
2023/12/27 15:26:09;;;;;;;;;;;;;;;17.09;48.53;99401.41;10332910;28;1882;-75
2023/12/27 15:31:05;;;;;;;;;;;;;;;17.09;48.69;99379.47;10332773;28;795;-75
2023/12/27 15:36:01;;;;;;;;;;;;;;;17.13;48.60;99369.66;10332776;28;1307;-75
2023/12/27 15:40:57;;;;;;;;;;;;;;;17.11;48.54;99372.38;10332354;28;814;-75
2023/12/27 15:45:53;;;;;;;;;;;;;;;17.12;48.66;99353.00;10332350;28;1909;-75
2023/12/27 15:50:49;;;;;;;;;;;;;;;17.30;48.40;99338.97;10332582;28;813;-76
2023/12/27 15:55:45;;;;;;;;;;;;;;;17.51;48.84;99339.72;10331928;28;923;-83
2023/12/27 16:00:41;;;;;;;;;;;;;;;17.51;49.13;99339.72;10331489;28;995;-76
2023/12/27 16:05:37;;;;;;;;;;;;;;;17.50;48.89;99339.78;10331032;28;1902;-75
2023/12/27 16:10:33;;;;;;;;;;;;;;;17.52;49.09;99337.94;10331045;28;795;-75
2023/12/27 16:15:29;;;;;;;;;;;;;;;17.52;49.25;99335.28;10331099;28;901;-75
2023/12/27 16:20:25;;;;;;;;;;;;;;;17.57;49.24;99325.38;10331106;28;859;-75
2023/12/27 16:25:21;;;;;;;;;;;;;;;17.60;49.19;99322.59;10329579;28;1955;-75
2023/12/27 16:30:17;;;;;;;;;;;;;;;17.58;49.27;99311.28;10331364;28;791;-75
2023/12/27 16:35:15;;;;;;;;;;;;;;;17.63;49.22;99295.22;10331222;28;747;-75
2023/12/27 16:40:11;;;;;;;;;;;;;;;17.64;49.22;99292.53;10330963;28;1215;-75
2023/12/27 16:45:07;;;;;;;;;;;;;;;17.67;49.05;99280.97;10330299;28;1913;-75
2023/12/27 16:50:03;;;;;;;;;;;;;;;17.74;48.81;99270.06;10329648;28;862;-75
2023/12/27 16:54:59;;;;;;;;;;;;;;;17.73;49.05;99251.66;10329936;28;803;-75
2023/12/27 16:59:55;;;;;;;;;;;;;;;17.78;49.19;99235.63;10329705;28;849;-77
2023/12/27 17:04:50;;;;;;;;;;;;;;;17.83;48.79;99238.91;10330048;28;1969;-76
2023/12/27 17:09:46;;;;;;;;;;;;;;;17.83;49.20;99217.81;10329288;28;968;-77
2023/12/27 17:14:42;;;;;;;;;;;;;;;17.89;49.38;99206.94;10329141;28;762;-77
2023/12/27 17:19:38;;;;;;;;;;;;;;;17.86;49.58;99215.88;10328916;28;826;-77
2023/12/27 17:24:34;;;;;;;;;;;;;;;17.86;49.64;99200.03;10328642;28;1893;-77
2023/12/27 17:29:30;;;;;;;;;;;;;;;17.88;49.64;99185.00;10329108;28;968;-77
2023/12/27 17:34:26;;;;;;;;;;;;;;;17.91;49.46;99186.63;10328261;28;948;-78
2023/12/27 17:39:22;;;;;;;;;;;;;;;17.79;49.46;99181.97;10327502;28;1642;-76
2023/12/27 17:44:18;;;;;;;;;;;;;;;17.88;49.21;99165.72;10327825;28;1914;-77
2023/12/27 17:49:14;;;;;;;;;;;;;;;17.91;49.05;99161.09;10328539;28;853;-76
2023/12/27 17:54:10;;;;;;;;;;;;;;;17.89;49.21;99156.84;10328205;28;845;-77
2023/12/27 17:59:08;;;;;;;;;;;;;;;17.90;49.18;99154.16;10327310;28;897;-76
2023/12/27 18:04:03;;;;;;;;;;;;;;;17.92;49.21;99139.09;10327037;28;1959;-77
2023/12/27 18:09:00;;;;;;;;;;;;;;;17.92;49.20;99125.03;10327488;28;885;-77
2023/12/27 18:13:56;;;;;;;;;;;;;;;17.93;49.22;99138.16;10326708;28;869;-77
2023/12/27 18:18:52;;;;;;;;;;;;;;;17.96;48.97;99139.78;10326595;28;915;-77
2023/12/27 18:23:48;;;;;;;;;;;;;;;17.95;48.83;99140.72;10326325;28;1902;-77
2023/12/27 18:28:44;;;;;;;;;;;;;;;17.95;48.96;99141.56;10326250;28;883;-77
2023/12/27 18:33:40;;;;;;;;;;;;;;;17.98;48.88;99135.28;10326729;28;849;-77
2023/12/27 18:38:35;;;;;;;;;;;;;;;17.95;49.02;99146.84;10326229;28;1210;-77
2023/12/27 18:43:31;;;;;;;;;;;;;;;17.95;48.74;99138.09;10325846;28;1965;-77
2023/12/27 18:48:27;;;;;;;;;;;;;;;17.98;48.78;99130.00;10325132;28;853;-77
2023/12/27 18:53:23;;;;;;;;;;;;;;;17.98;48.58;99124.72;10326545;28;857;-77
2023/12/27 18:58:19;;;;;;;;;;;;;;;17.97;48.54;99112.47;10325559;28;919;-77
2023/12/27 19:03:15;;;;;;;;;;;;;;;17.99;48.42;99097.41;10326476;28;1910;-77
2023/12/27 19:08:11;;;;;;;;;;;;;;;17.96;48.52;99102.88;10325882;28;805;-77
2023/12/27 19:13:07;;;;;;;;;;;;;;;18.01;48.54;99090.28;10325864;28;887;-77
2023/12/27 19:18:03;;;;;;;;;;;;;;;18.00;48.24;99093.88;10325112;28;913;-76
2023/12/27 19:22:58;;;;;;;;;;;;;;;17.95;48.17;99067.75;10324393;28;1898;-77
2023/12/27 19:27:54;;;;;;;;;;;;;;;18.00;48.16;99061.34;10324966;28;771;-77
2023/12/27 19:32:50;;;;;;;;;;;;;;;18.00;47.93;99061.34;10325120;28;861;-76
2023/12/27 19:37:46;;;;;;;;;;;;;;;17.99;48.04;99039.41;10325444;28;1102;-77
2023/12/27 19:42:42;;;;;;;;;;;;;;;17.98;47.94;99037.72;10324625;28;1914;-77
2023/12/27 19:47:38;;;;;;;;;;;;;;;17.99;47.92;99001.66;10324555;28;786;-76
2023/12/27 19:52:34;;;;;;;;;;;;;;;18.00;47.87;98996.31;10324461;28;789;-77
2023/12/27 19:57:30;;;;;;;;;;;;;;;17.99;47.90;98981.41;10324970;28;865;-77
2023/12/27 20:02:25;;;;;;;;;;;;;;;18.01;47.67;98960.22;10330090;28;873;-77
2023/12/27 20:07:21;;;;;;;;;;;;;;;17.99;47.82;98965.56;10332197;28;1882;-77
2023/12/27 20:12:17;;;;;;;;;;;;;;;18.00;47.48;98943.56;10331511;28;914;-77
2023/12/27 20:17:13;;;;;;;;;;;;;;;18.01;47.42;98953.16;10331479;28;855;-77
2023/12/27 20:22:09;;;;;;;;;;;;;;;17.98;47.35;98973.59;10330574;28;830;-77
2023/12/27 20:27:05;;;;;;;;;;;;;;;17.99;47.35;98976.13;10331445;28;1956;-77
2023/12/27 20:32:01;;;;;;;;;;;;;;;18.02;47.42;99002.31;10330780;28;863;-77
2023/12/27 20:36:57;;;;;;;;;;;;;;;17.94;47.39;99000.09;10331833;28;1269;-77
2023/12/27 20:41:53;;;;;;;;;;;;;;;17.94;46.26;99026.47;10331081;28;866;-77
2023/12/27 20:46:49;;;;;;;;;;;;;;;17.87;46.98;99032.19;10330766;28;1977;-77
2023/12/27 20:51:45;;;;;;;;;;;;;;;17.85;46.64;99015.59;10330857;28;822;-77
2023/12/27 20:56:42;;;;;;;;;;;;;;;17.86;46.20;98990.94;10329833;28;1132;-77
2023/12/27 21:01:38;;;;;;;;;;;;;;;17.83;46.52;99001.66;10329683;28;853;-77
2023/12/27 21:06:34;;;;;;;;;;;;;;;17.77;46.45;99008.09;10330231;28;1953;-77
2023/12/27 21:11:29;;;;;;;;;;;;;;;17.80;45.51;99009.72;10328580;28;873;-77
2023/12/27 21:16:25;;;;;;;;;;;;;;;17.81;46.20;98999.09;10329920;28;758;-77
2023/12/27 21:21:21;;;;;;;;;;;;;;;17.80;45.67;98988.66;10329012;28;865;-77
2023/12/27 21:26:17;;;;;;;;;;;;;;;17.73;46.04;98986.28;10329228;28;1890;-77
2023/12/27 21:31:13;;;;;;;;;;;;;;;17.73;45.03;98994.19;10330250;28;897;-77
2023/12/27 21:36:09;;;;;;;;;;;;;;;17.70;46.06;98997.00;10329031;28;1184;-77
2023/12/27 21:41:05;;;;;;;;;;;;;;;17.70;45.67;99028.63;10328078;28;916;-76
2023/12/27 21:46:01;;;;;;;;;;;;;;;17.72;45.07;99016.22;10326564;28;1917;-77
2023/12/27 21:50:57;;;;;;;;;;;;;;;17.67;45.55;99006.88;10327703;28;877;-77
2023/12/27 21:55:53;;;;;;;;;;;;;;;17.71;44.17;99005.75;10327510;28;875;-77
2023/12/27 22:00:49;;;;;;;;;;;;;;;17.72;43.92;98983.75;10327984;28;867;-77
2023/12/27 22:05:46;;;;;;;;;;;;;;;17.56;45.45;98998.72;10326439;28;1956;-77
2023/12/27 22:10:41;;;;;;;;;;;;;;;17.52;45.14;99027.00;10327209;28;924;-77
2023/12/27 22:15:37;;;;;;;;;;;;;;;17.56;44.71;99025.06;10326746;28;841;-77
2023/12/27 22:20:33;;;;;;;;;;;;;;;17.54;44.46;99027.78;10326542;28;862;-76
2023/12/27 22:25:29;;;;;;;;;;;;;;;17.51;44.66;99057.78;10326970;28;1894;-77
2023/12/27 22:30:25;;;;;;;;;;;;;;;17.51;44.04;99059.56;10327122;28;959;-76
2023/12/27 22:35:21;;;;;;;;;;;;;;;17.48;44.57;99065.00;10325620;28;1057;-76
2023/12/27 22:40:17;;;;;;;;;;;;;;;17.47;44.31;99090.47;10326640;28;822;-76
2023/12/27 22:45:12;;;;;;;;;;;;;;;17.47;44.13;99121.25;10325206;28;1967;-77
2023/12/27 22:50:08;;;;;;;;;;;;;;;17.54;43.39;99120.00;10326381;28;837;-77
2023/12/27 22:55:04;;;;;;;;;;;;;;;17.44;44.64;99109.06;10326293;28;842;-77
2023/12/27 23:00:00;;;;;;;;;;;;;;;17.46;44.17;99116.91;10326307;28;861;-77
2023/12/27 23:04:56;;;;;;;;;;;;;;;17.40;44.78;99094.38;10325919;28;1898;-77
2023/12/27 23:09:52;;;;;;;;;;;;;;;17.42;45.00;99096.91;10325327;28;871;-77
2023/12/27 23:14:48;;;;;;;;;;;;;;;17.45;44.65;99108.16;10326013;28;813;-76
2023/12/27 23:19:44;;;;;;;;;;;;;;;17.51;44.32;99117.53;10325864;28;993;-77
2023/12/27 23:24:39;;;;;;;;;;;;;;;17.42;44.87;99107.44;10324987;28;1902;-77
2023/12/27 23:29:36;;;;;;;;;;;;;;;17.42;45.15;99110.09;10325464;28;1666;-77
2023/12/27 23:34:32;;;;;;;;;;;;;;;17.40;45.34;99111.97;10326527;28;1013;-77
2023/12/27 23:39:28;;;;;;;;;;;;;;;17.42;44.78;99086.38;10333134;28;1124;-76
2023/12/27 23:44:24;;;;;;;;;;;;;;;17.39;45.35;99105.81;10332576;28;1914;-76
2023/12/27 23:49:20;;;;;;;;;;;;;;;17.42;45.42;99099.56;10333190;28;838;-77
2023/12/27 23:54:16;;;;;;;;;;;;;;;17.40;45.53;99104.06;10333434;28;893;-77
2023/12/27 23:59:11;;;;;;;;;;;;;;;17.51;44.75;99143.88;10332057;28;836;-77
